Time;durP1;ratioP1;P1;durP2;ratioP2;P2;SDS_P1;SDS_P2;PMS_P1;PMS_P2;Temp;Humidity;BMP_temperature;BMP_pressure;BME280_temperature;BME280_humidity;BME280_pressure;Samples;Min_cycle;Max_cycle;Signal;HPM_P1;HPM_P2
2023/10/01 00:02:07;;;;;;;17.30;9.65;;;;;;;;;;5053980;28;20423;-74
2023/10/01 00:04:35;;;;;;;18.35;10.43;;;;;;;;;;5053882;28;20104;-74
2023/10/01 00:07:01;;;;;;;16.52;8.82;;;;;;;;;;5053452;28;20082;-74
2023/10/01 00:09:28;;;;;;;21.48;10.68;;;;;;;;;;5054456;28;20055;-74
2023/10/01 00:11:54;;;;;;;17.20;9.90;;;;;;;;;;5053485;28;20801;-73
2023/10/01 00:14:21;;;;;;;21.35;10.07;;;;;;;;;;5052830;28;20491;-75
2023/10/01 00:16:47;;;;;;;21.02;10.63;;;;;;;;;;5051498;28;20106;-75
2023/10/01 00:19:13;;;;;;;20.35;10.40;;;;;;;;;;5052919;28;20407;-74
2023/10/01 00:21:40;;;;;;;20.63;10.20;;;;;;;;;;5053550;28;20040;-74
2023/10/01 00:24:06;;;;;;;22.05;10.27;;;;;;;;;;5053184;28;20402;-75
2023/10/01 00:26:32;;;;;;;21.77;9.80;;;;;;;;;;5053147;28;20406;-74
2023/10/01 00:28:58;;;;;;;19.75;10.75;;;;;;;;;;5052945;28;20045;-74
2023/10/01 00:31:24;;;;;;;23.95;10.23;;;;;;;;;;5051495;28;20053;-74
2023/10/01 00:33:50;;;;;;;18.77;10.63;;;;;;;;;;5052203;28;20090;-75
2023/10/01 00:36:17;;;;;;;19.23;11.00;;;;;;;;;;5052478;28;20446;-75
2023/10/01 00:38:43;;;;;;;17.05;9.95;;;;;;;;;;5053082;28;20139;-76
2023/10/01 00:41:11;;;;;;;19.60;10.20;;;;;;;;;;5051262;28;20052;-75
2023/10/01 00:43:37;;;;;;;18.23;10.68;;;;;;;;;;5050895;28;20041;-75
2023/10/01 00:46:03;;;;;;;18.77;9.82;;;;;;;;;;5051186;28;20049;-75
2023/10/01 00:48:30;;;;;;;22.33;9.93;;;;;;;;;;5051953;28;20132;-77
2023/10/01 00:50:57;;;;;;;19.38;10.50;;;;;;;;;;5049729;28;20114;-75
2023/10/01 00:53:23;;;;;;;18.08;10.13;;;;;;;;;;5053187;28;20198;-75
2023/10/01 00:55:51;;;;;;;18.75;10.43;;;;;;;;;;5049910;28;20048;-75
2023/10/01 00:58:18;;;;;;;18.52;10.25;;;;;;;;;;5051914;28;20127;-75
2023/10/01 01:00:45;;;;;;;19.10;10.02;;;;;;;;;;5052663;28;20067;-75
2023/10/01 01:03:18;;;;;;;16.73;9.90;;;;;;;;;;5052338;28;20071;-75
2023/10/01 01:05:57;;;;;;;16.83;10.23;;;;;;;;;;5044913;28;20048;-75
2023/10/01 01:08:34;;;;;;;14.70;9.52;;;;;;;;;;5040721;28;20106;-75
2023/10/01 01:11:01;;;;;;;19.88;10.32;;;;;;;;;;5051206;28;20048;-75
2023/10/01 01:13:33;;;;;;;20.27;9.70;;;;;;;;;;5051305;28;20037;-75
2023/10/01 01:16:00;;;;;;;18.05;10.13;;;;;;;;;;5051396;28;20064;-75
2023/10/01 01:18:34;;;;;;;16.88;10.35;;;;;;;;;;5049972;28;20136;-75
2023/10/01 01:21:05;;;;;;;17.90;10.05;;;;;;;;;;5042752;28;20056;-75
2023/10/01 01:23:31;;;;;;;18.38;9.57;;;;;;;;;;5034093;28;20063;-75
2023/10/01 01:25:59;;;;;;;19.02;10.32;;;;;;;;;;5050843;28;20068;-75
2023/10/01 01:28:30;;;;;;;17.33;10.00;;;;;;;;;;5051217;28;20083;-75
2023/10/01 01:30:58;;;;;;;18.88;9.40;;;;;;;;;;5050550;28;20060;-75
2023/10/01 01:33:31;;;;;;;18.70;10.27;;;;;;;;;;5051023;28;20135;-74
2023/10/01 01:36:03;;;;;;;18.05;10.32;;;;;;;;;;5049967;28;20040;-74
2023/10/01 01:38:31;;;;;;;22.52;11.15;;;;;;;;;;5052120;28;20076;-74
2023/10/01 01:40:57;;;;;;;18.73;10.40;;;;;;;;;;5046354;28;20083;-74
2023/10/01 01:43:23;;;;;;;18.08;10.90;;;;;;;;;;5050185;28;20381;-74
2023/10/01 01:45:56;;;;;;;17.15;10.95;;;;;;;;;;5051062;28;20049;-74
2023/10/01 01:48:31;;;;;;;20.70;10.60;;;;;;;;;;5048072;28;20081;-74
2023/10/01 01:51:01;;;;;;;21.45;11.70;;;;;;;;;;5048714;28;20073;-74
2023/10/01 01:53:34;;;;;;;19.65;10.50;;;;;;;;;;5051293;28;20116;-74
2023/10/01 01:56:04;;;;;;;22.90;12.00;;;;;;;;;;5050839;28;20742;-74
2023/10/01 01:58:30;;;;;;;16.50;11.00;;;;;;;;;;5051091;28;20503;-74
2023/10/01 02:01:08;;;;;;;19.88;10.95;;;;;;;;;;5051157;28;20110;-76
2023/10/01 02:03:46;;;;;;;24.02;11.95;;;;;;;;;;5051569;28;20460;-75
2023/10/01 02:06:13;;;;;;;21.08;12.35;;;;;;;;;;5049911;28;20080;-75
2023/10/01 02:08:58;;;;;;;22.40;12.25;;;;;;;;;;5052875;28;20091;-75
2023/10/01 02:11:24;;;;;;;21.65;13.07;;;;;;;;;;5051157;28;20053;-75
2023/10/01 02:13:51;;;;;;;19.63;12.55;;;;;;;;;;5052100;28;20073;-75
2023/10/01 02:18:58;;;;;;;20.48;11.95;;;;;;;;;;5051457;28;20077;-75
2023/10/01 02:24:12;;;;;;;17.52;11.10;;;;;;;;;;5050507;28;20044;-75
2023/10/01 02:26:47;;;;;;;17.25;12.00;;;;;;;;;;5050370;28;20495;-75
2023/10/01 02:29:13;;;;;;;21.70;13.43;;;;;;;;;;5051612;28;20084;-74
2023/10/01 02:31:48;;;;;;;20.17;12.75;;;;;;;;;;5051594;28;20098;-77
2023/10/01 02:34:18;;;;;;;19.65;13.35;;;;;;;;;;5044629;28;20042;-75
2023/10/01 02:36:44;;;;;;;23.48;12.68;;;;;;;;;;5048338;28;20407;-74
2023/10/01 02:39:28;;;;;;;20.77;13.38;;;;;;;;;;5051543;28;20395;-74
2023/10/01 02:44:34;;;;;;;16.90;12.48;;;;;;;;;;5048009;28;20479;-75
2023/10/01 02:47:09;;;;;;;20.42;12.27;;;;;;;;;;5049575;28;20041;-75
2023/10/01 02:49:35;;;;;;;19.67;13.43;;;;;;;;;;5048466;28;20571;-75
2023/10/01 02:52:03;;;;;;;17.90;12.25;;;;;;;;;;5054432;28;20124;-74
2023/10/01 02:54:30;;;;;;;19.00;12.52;;;;;;;;;;5049114;28;20044;-75
2023/10/01 02:57:12;;;;;;;18.70;12.32;;;;;;;;;;5051355;28;20083;-75
2023/10/01 02:59:38;;;;;;;;;;;;;;;;;;5054056;28;20051;-74
2023/10/01 03:02:08;;;;;;;19.80;13.02;;;;;;;;;;5054259;28;19927;-75
2023/10/01 03:04:34;;;;;;;21.00;13.82;;;;;;;;;;5054523;28;20128;-75
2023/10/01 03:07:04;;;;;;;21.02;13.68;;;;;;;;;;5053732;28;20444;-75
2023/10/01 03:09:33;;;;;;;22.83;14.52;;;;;;;;;;5056256;28;20041;-75
2023/10/01 03:15:00;;;;;;;22.10;14.70;;;;;;;;;;5055211;28;20041;-75
2023/10/01 03:17:39;;;;;;;19.00;14.00;;;;;;;;;;5054853;28;20041;-77
2023/10/01 03:22:53;;;;;;;21.30;14.35;;;;;;;;;;5052243;28;20084;-75
2023/10/01 03:25:28;;;;;;;19.65;15.00;;;;;;;;;;5054156;28;20099;-76
2023/10/01 03:28:01;;;;;;;18.63;14.45;;;;;;;;;;5054379;28;20132;-75
2023/10/01 03:30:32;;;;;;;17.45;13.50;;;;;;;;;;5039800;28;20472;-74
2023/10/01 03:33:01;;;;;;;20.45;14.90;;;;;;;;;;5053705;28;20056;-75
2023/10/01 03:35:27;;;;;;;19.83;13.82;;;;;;;;;;5050006;28;20041;-74
2023/10/01 03:38:09;;;;;;;18.40;13.27;;;;;;;;;;5049626;28;20040;-75
2023/10/01 03:40:57;;;;;;;19.15;14.10;;;;;;;;;;5053491;28;20049;-74
2023/10/01 03:43:31;;;;;;;21.33;14.57;;;;;;;;;;5052958;28;20079;-75
2023/10/01 03:46:06;;;;;;;18.60;13.85;;;;;;;;;;5053160;28;20049;-75
2023/10/01 03:48:58;;;;;;;23.77;15.18;;;;;;;;;;5052454;28;20045;-75
2023/10/01 03:51:28;;;;;;;19.38;14.50;;;;;;;;;;5052179;28;20045;-75
2023/10/01 03:53:59;;;;;;;19.92;14.02;;;;;;;;;;5053540;28;20067;-74
2023/10/01 03:56:29;;;;;;;21.13;14.60;;;;;;;;;;5053260;28;20060;-74
2023/10/01 03:58:55;;;;;;;20.85;13.90;;;;;;;;;;5055132;28;20055;-74
2023/10/01 04:01:26;;;;;;;18.42;12.48;;;;;;;;;;5054217;28;20041;-75
2023/10/01 04:03:52;;;;;;;23.05;15.40;;;;;;;;;;5054038;28;20045;-74
2023/10/01 04:06:21;;;;;;;21.48;14.00;;;;;;;;;;5051327;28;20045;-74
2023/10/01 04:08:48;;;;;;;20.92;14.50;;;;;;;;;;5035003;28;20107;-75
2023/10/01 04:11:16;;;;;;;21.55;13.73;;;;;;;;;;5045200;28;20124;-74
2023/10/01 04:13:42;;;;;;;20.70;13.55;;;;;;;;;;5049000;28;20128;-74
2023/10/01 04:16:08;;;;;;;18.42;14.43;;;;;;;;;;5043788;28;20132;-74
2023/10/01 04:18:36;;;;;;;23.58;13.38;;;;;;;;;;5052079;28;20052;-74
2023/10/01 04:23:40;;;;;;;23.10;14.00;;;;;;;;;;5052697;28;20144;-74
2023/10/01 04:26:13;;;;;;;18.25;12.95;;;;;;;;;;5047718;28;20450;-75
2023/10/01 04:28:46;;;;;;;23.10;14.40;;;;;;;;;;5053239;28;20044;-74
2023/10/01 04:31:42;;;;;;;21.15;13.18;;;;;;;;;;5053116;28;20377;-75
2023/10/01 04:34:10;;;;;;;21.60;13.38;;;;;;;;;;5049515;28;20079;-74
2023/10/01 04:36:38;;;;;;;18.13;12.90;;;;;;;;;;5049102;28;20049;-74
2023/10/01 04:39:04;;;;;;;21.15;13.50;;;;;;;;;;5053577;28;20431;-74
2023/10/01 04:41:31;;;;;;;19.80;13.43;;;;;;;;;;5048939;28;20061;-74
2023/10/01 04:44:06;;;;;;;20.45;13.60;;;;;;;;;;5050162;28;20048;-74
2023/10/01 04:46:40;;;;;;;19.67;12.82;;;;;;;;;;5050365;28;20127;-74
2023/10/01 04:49:31;;;;;;;19.05;12.50;;;;;;;;;;5031830;28;20105;-74
2023/10/01 04:52:00;;;;;;;20.17;13.25;;;;;;;;;;5050052;28;20075;-74
2023/10/01 04:54:28;;;;;;;19.73;12.50;;;;;;;;;;5052506;28;20136;-74
2023/10/01 04:56:57;;;;;;;21.60;12.77;;;;;;;;;;5051739;28;20083;-74
2023/10/01 04:59:27;;;;;;;20.40;12.35;;;;;;;;;;5045666;28;20144;-74
2023/10/01 05:01:56;;;;;;;17.55;12.00;;;;;;;;;;5045963;28;20051;-75
2023/10/01 05:04:27;;;;;;;18.50;12.38;;;;;;;;;;5053536;28;20102;-75
2023/10/01 05:07:09;;;;;;;19.77;12.02;;;;;;;;;;5052193;28;20427;-75
2023/10/01 05:09:36;;;;;;;20.73;12.75;;;;;;;;;;5044738;28;20514;-75
2023/10/01 05:12:03;;;;;;;20.75;12.20;;;;;;;;;;5053311;28;20119;-75
2023/10/01 05:14:29;;;;;;;18.65;11.43;;;;;;;;;;5049689;28;20125;-75
2023/10/01 05:16:55;;;;;;;20.65;12.07;;;;;;;;;;5050505;28;20412;-74
2023/10/01 05:19:25;;;;;;;19.23;12.07;;;;;;;;;;5051969;28;20491;-74
2023/10/01 05:21:54;;;;;;;20.17;11.27;;;;;;;;;;5047166;28;20052;-74
2023/10/01 05:24:34;;;;;;;16.67;9.90;;;;;;;;;;5050833;28;20534;-74
2023/10/01 05:27:02;;;;;;;17.60;11.60;;;;;;;;;;5051264;28;20048;-76
2023/10/01 05:29:28;;;;;;;17.73;10.88;;;;;;;;;;5050554;28;20052;-75
2023/10/01 05:31:55;;;;;;;17.38;10.95;;;;;;;;;;5051199;28;20065;-75
2023/10/01 05:34:22;;;;;;;17.23;10.77;;;;;;;;;;5050341;28;20044;-75
2023/10/01 05:36:52;;;;;;;19.05;10.88;;;;;;;;;;5051418;28;20045;-75
2023/10/01 05:39:23;;;;;;;19.42;11.18;;;;;;;;;;5052773;28;20131;-75
2023/10/01 05:41:49;;;;;;;17.13;10.00;;;;;;;;;;5050170;28;20041;-76
2023/10/01 05:44:15;;;;;;;17.45;10.38;;;;;;;;;;5049217;28;20524;-76
2023/10/01 05:46:41;;;;;;;18.00;10.80;;;;;;;;;;5045635;28;20076;-75
2023/10/01 05:49:12;;;;;;;16.98;11.05;;;;;;;;;;5044834;28;20049;-75
2023/10/01 05:51:45;;;;;;;24.42;11.23;;;;;;;;;;5050288;28;20053;-76
2023/10/01 05:54:12;;;;;;;21.73;11.65;;;;;;;;;;5047258;28;20436;-75
2023/10/01 05:56:40;;;;;;;20.45;10.80;;;;;;;;;;5049962;28;20051;-75
2023/10/01 05:59:06;;;;;;;21.38;12.13;;;;;;;;;;5050105;28;20049;-75
2023/10/01 06:01:33;;;;;;;17.80;11.50;;;;;;;;;;5048312;28;20090;-76
2023/10/01 06:04:00;;;;;;;17.90;11.70;;;;;;;;;;5050315;28;20406;-76
2023/10/01 06:06:27;;;;;;;21.25;11.85;;;;;;;;;;5045376;28;20053;-77
2023/10/01 06:08:58;;;;;;;18.45;11.95;;;;;;;;;;5049182;28;20399;-76
2023/10/01 06:11:38;;;;;;;15.77;10.68;;;;;;;;;;5048998;28;20051;-76
2023/10/01 06:14:05;;;;;;;19.08;11.50;;;;;;;;;;5050804;28;20064;-78
2023/10/01 06:16:37;;;;;;;18.92;10.95;;;;;;;;;;5060969;28;20044;-75
2023/10/01 06:19:03;;;;;;;19.67;10.93;;;;;;;;;;5041781;28;20126;-76
2023/10/01 06:21:33;;;;;;;17.80;11.10;;;;;;;;;;5027782;28;20082;-76
2023/10/01 06:24:04;;;;;;;20.30;11.02;;;;;;;;;;5048568;28;20041;-76
2023/10/01 06:26:36;;;;;;;19.80;11.23;;;;;;;;;;5052676;28;20111;-75
2023/10/01 06:29:03;;;;;;;21.20;10.98;;;;;;;;;;5048202;28;20550;-75
2023/10/01 06:34:21;;;;;;;18.52;9.65;;;;;;;;;;5052437;28;20136;-76
2023/10/01 06:36:51;;;;;;;19.98;10.05;;;;;;;;;;5052310;28;20095;-76
2023/10/01 06:39:23;;;;;;;18.37;10.40;;;;;;;;;;5050708;28;20048;-76
2023/10/01 06:41:49;;;;;;;20.45;10.73;;;;;;;;;;5055241;28;20056;-77
2023/10/01 06:44:15;;;;;;;17.65;10.30;;;;;;;;;;5037693;28;20103;-76
2023/10/01 06:46:41;;;;;;;18.95;9.98;;;;;;;;;;5042383;28;20073;-76
2023/10/01 06:49:10;;;;;;;21.08;10.38;;;;;;;;;;5048281;28;20216;-76
2023/10/01 06:51:43;;;;;;;19.92;10.25;;;;;;;;;;5055013;28;20472;-78
2023/10/01 06:54:10;;;;;;;18.95;10.10;;;;;;;;;;5052878;28;20103;-77
2023/10/01 06:56:38;;;;;;;18.55;10.13;;;;;;;;;;5054389;28;20550;-74
2023/10/01 07:01:43;;;;;;;18.20;10.13;;;;;;;;;;5052433;28;20487;-75
2023/10/01 07:04:11;;;;;;;18.08;10.15;;;;;;;;;;5049947;28;20048;-78
2023/10/01 07:06:37;;;;;;;19.98;10.32;;;;;;;;;;5052356;28;20045;-75
2023/10/01 07:09:06;;;;;;;19.60;10.63;;;;;;;;;;5045466;28;20503;-76
2023/10/01 07:11:33;;;;;;;20.92;11.38;;;;;;;;;;5051793;28;20094;-75
2023/10/01 07:14:01;;;;;;;23.95;11.88;;;;;;;;;;5054645;28;20037;-75
2023/10/01 07:16:39;;;;;;;23.23;11.65;;;;;;;;;;5052742;28;20494;-75
2023/10/01 07:19:11;;;;;;;20.10;12.25;;;;;;;;;;5052629;28;20183;-76
2023/10/01 07:21:37;;;;;;;20.23;11.77;;;;;;;;;;5052248;28;20041;-78
2023/10/01 07:24:04;;;;;;;21.63;12.10;;;;;;;;;;5053708;28;20049;-78
2023/10/01 07:26:30;;;;;;;19.65;12.30;;;;;;;;;;5052539;28;20349;-76
2023/10/01 07:28:56;;;;;;;22.50;12.00;;;;;;;;;;5053141;28;20403;-77
2023/10/01 07:31:26;;;;;;;22.85;11.52;;;;;;;;;;5054364;28;20495;-76
2023/10/01 07:34:01;;;;;;;19.20;11.90;;;;;;;;;;5050925;28;20125;-75
2023/10/01 07:36:27;;;;;;;20.83;11.65;;;;;;;;;;5035501;28;20446;-75
2023/10/01 07:38:56;;;;;;;21.50;11.48;;;;;;;;;;5047513;28;20050;-74
2023/10/01 07:41:27;;;;;;;20.83;11.65;;;;;;;;;;5053255;28;20558;-77
2023/10/01 07:43:56;;;;;;;19.23;11.73;;;;;;;;;;5054409;28;20055;-76
2023/10/01 07:46:22;;;;;;;20.23;11.80;;;;;;;;;;5051963;28;20582;-75
2023/10/01 07:48:51;;;;;;;20.50;11.38;;;;;;;;;;5054120;28;20045;-78
2023/10/01 07:51:26;;;;;;;20.45;12.27;;;;;;;;;;5049685;28;20045;-75
2023/10/01 07:53:52;;;;;;;21.58;11.35;;;;;;;;;;5050814;28;20179;-75
2023/10/01 07:56:21;;;;;;;18.17;11.75;;;;;;;;;;5049442;28;20049;-75
2023/10/01 07:58:48;;;;;;;19.67;11.50;;;;;;;;;;5045973;28;20080;-75
2023/10/01 08:02:07;;;;;;;19.63;11.35;;;;;;;;;;5043820;28;20503;-76
2023/10/01 08:07:05;;;;;;;18.17;10.35;;;;;;;;;;5052582;28;20133;-75
2023/10/01 08:09:32;;;;;;;17.00;11.25;;;;;;;;;;5054873;28;20067;-75
2023/10/01 08:11:58;;;;;;;20.75;11.23;;;;;;;;;;5041659;28;20083;-76
2023/10/01 08:14:33;;;;;;;18.85;12.07;;;;;;;;;;5052985;28;20415;-76
2023/10/01 08:17:00;;;;;;;17.92;11.65;;;;;;;;;;5051744;28;20487;-76
2023/10/01 08:19:44;;;;;;;18.67;11.02;;;;;;;;;;5053015;28;20041;-78
2023/10/01 08:22:23;;;;;;;20.00;11.25;;;;;;;;;;5052617;28;20045;-76
2023/10/01 08:24:49;;;;;;;21.02;11.00;;;;;;;;;;5053339;28;20040;-75
2023/10/01 08:27:31;;;;;;;17.15;9.75;;;;;;;;;;5051464;28;20049;-75
2023/10/01 08:30:18;;;;;;;19.00;10.55;;;;;;;;;;5048916;28;20154;-75
2023/10/01 08:32:53;;;;;;;19.55;10.60;;;;;;;;;;5045721;28;20538;-76
2023/10/01 08:35:23;;;;;;;18.67;11.25;;;;;;;;;;5052722;28;20046;-76
2023/10/01 08:37:49;;;;;;;18.63;10.55;;;;;;;;;;5051843;28;20049;-75
2023/10/01 08:40:17;;;;;;;16.70;9.63;;;;;;;;;;5047704;28;20118;-76
2023/10/01 08:42:47;;;;;;;20.05;10.20;;;;;;;;;;5050122;28;20541;-76
2023/10/01 08:45:17;;;;;;;19.13;10.20;;;;;;;;;;5052065;28;20406;-75
2023/10/01 08:47:47;;;;;;;14.70;9.43;;;;;;;;;;5049123;28;20060;-75
2023/10/01 08:52:52;;;;;;;17.35;9.98;;;;;;;;;;5056652;28;20127;-76
2023/10/01 08:55:27;;;;;;;22.10;10.55;;;;;;;;;;5052563;28;20049;-76
2023/10/01 08:57:53;;;;;;;17.55;9.68;;;;;;;;;;5046547;28;20079;-76
2023/10/01 09:00:20;;;;;;;16.95;9.27;;;;;;;;;;5055152;28;20132;-76
2023/10/01 09:02:50;;;;;;;21.27;9.60;;;;;;;;;;5052665;28;20059;-76
2023/10/01 09:05:23;;;;;;;16.42;9.32;;;;;;;;;;5060041;28;20083;-76
2023/10/01 09:07:50;;;;;;;16.10;9.15;;;;;;;;;;5046313;28;20048;-74
2023/10/01 09:10:20;;;;;;;18.05;9.57;;;;;;;;;;5050370;28;20056;-75
2023/10/01 09:12:46;;;;;;;18.40;9.32;;;;;;;;;;5051712;28;20044;-78
2023/10/01 09:15:38;;;;;;;14.82;8.35;;;;;;;;;;5051415;28;20045;-77
2023/10/01 09:18:11;;;;;;;21.33;9.70;;;;;;;;;;5053232;28;20049;-78
2023/10/01 09:20:38;;;;;;;19.00;8.73;;;;;;;;;;5047570;28;20073;-78
2023/10/01 09:23:05;;;;;;;18.23;8.23;;;;;;;;;;5051408;28;20654;-78
2023/10/01 09:25:34;;;;;;;21.27;8.70;;;;;;;;;;5053700;28;20114;-79
2023/10/01 09:28:04;;;;;;;18.85;8.88;;;;;;;;;;5052065;28;20048;-78
2023/10/01 09:30:35;;;;;;;18.50;8.95;;;;;;;;;;5043821;28;20037;-79
2023/10/01 09:33:05;;;;;;;17.95;9.23;;;;;;;;;;5051605;28;20076;-78
2023/10/01 09:36:07;;;;;;;17.98;9.20;;;;;;;;;;5055020;28;20045;-78
2023/10/01 09:38:31;;;;;;;18.75;9.15;;;;;;;;;;5052308;28;20041;-78
2023/10/01 09:40:58;;;;;;;17.73;8.25;;;;;;;;;;5049542;28;20051;-78
2023/10/01 09:43:27;;;;;;;17.48;9.07;;;;;;;;;;5055120;28;20064;-80
2023/10/01 09:45:53;;;;;;;16.58;8.00;;;;;;;;;;5052193;28;20562;-77
2023/10/01 09:48:30;;;;;;;17.48;8.40;;;;;;;;;;5052460;28;20051;-78
2023/10/01 09:51:09;;;;;;;17.65;9.32;;;;;;;;;;5049778;28;20069;-78
2023/10/01 09:53:55;;;;;;;16.52;8.30;;;;;;;;;;5045853;28;20103;-78
2023/10/01 09:56:26;;;;;;;17.35;8.73;;;;;;;;;;5056222;28;20056;-78
2023/10/01 09:58:59;;;;;;;19.77;8.43;;;;;;;;;;5062273;28;20050;-78
2023/10/01 10:01:30;;;;;;;19.02;8.32;;;;;;;;;;5054967;28;20353;-77
2023/10/01 10:03:56;;;;;;;;;;;;;;;;;;5046183;28;20427;-77
2023/10/01 10:06:25;;;;;;;19.92;8.40;;;;;;;;;;5064518;28;19920;-77
2023/10/01 10:09:04;;;;;;;16.98;8.70;;;;;;;;;;5054343;28;20040;-77
2023/10/01 10:11:48;;;;;;;17.55;8.48;;;;;;;;;;5053008;28;20053;-78
2023/10/01 10:14:24;;;;;;;19.25;8.45;;;;;;;;;;5046222;28;20045;-78
2023/10/01 10:16:57;;;;;;;16.90;8.55;;;;;;;;;;5048515;28;20037;-78
2023/10/01 10:19:23;;;;;;;17.38;8.18;;;;;;;;;;5053951;28;20068;-79
2023/10/01 10:24:30;;;;;;;15.57;8.13;;;;;;;;;;5043006;28;20051;-78
2023/10/01 10:27:03;;;;;;;16.27;8.00;;;;;;;;;;5055751;28;20083;-78
2023/10/01 10:29:57;;;;;;;14.10;7.63;;;;;;;;;;5054242;28;20049;-78
2023/10/01 10:32:27;;;;;;;17.15;8.55;;;;;;;;;;5055239;28;20060;-78
2023/10/01 10:35:05;;;;;;;17.67;7.93;;;;;;;;;;5053269;28;20136;-77
2023/10/01 10:37:37;;;;;;;19.15;9.02;;;;;;;;;;5055714;28;20052;-79
2023/10/01 10:40:13;;;;;;;16.02;8.23;;;;;;;;;;5027775;28;20037;-78
2023/10/01 10:42:46;;;;;;;20.67;9.15;;;;;;;;;;5052299;28;20037;-78
2023/10/01 10:45:24;;;;;;;18.85;8.50;;;;;;;;;;5054203;28;20491;-78
2023/10/01 10:48:01;;;;;;;18.40;8.15;;;;;;;;;;5047599;28;20045;-78
2023/10/01 10:50:45;;;;;;;14.82;8.00;;;;;;;;;;5054648;28;20056;-78
2023/10/01 10:53:19;;;;;;;18.67;8.82;;;;;;;;;;5054267;28;20388;-77
2023/10/01 10:56:00;;;;;;;20.23;8.20;;;;;;;;;;5053142;28;20380;-78
2023/10/01 10:58:31;;;;;;;17.02;8.85;;;;;;;;;;5053320;28;20044;-78
2023/10/01 11:01:15;;;;;;;;;;;;;;;;;;5054275;28;20053;-77
2023/10/01 11:03:41;;;;;;;17.92;8.35;;;;;;;;;;5054091;28;19921;-78
2023/10/01 11:06:18;;;;;;;16.20;8.23;;;;;;;;;;5050205;28;20144;-78
2023/10/01 11:08:50;;;;;;;17.52;7.95;;;;;;;;;;5049080;28;20106;-77
2023/10/01 11:11:21;;;;;;;16.15;8.32;;;;;;;;;;5048715;28;20131;-77
2023/10/01 11:13:47;;;;;;;18.15;8.45;;;;;;;;;;5030411;28;20045;-78
2023/10/01 11:16:14;;;;;;;19.23;8.80;;;;;;;;;;5040046;28;20045;-77
2023/10/01 11:18:47;;;;;;;19.00;8.55;;;;;;;;;;5051616;28;20045;-77
2023/10/01 11:21:20;;;;;;;14.85;7.80;;;;;;;;;;5057972;28;20048;-77
2023/10/01 11:23:53;;;;;;;17.48;8.18;;;;;;;;;;5057009;28;20044;-77
2023/10/01 11:26:26;;;;;;;18.65;8.07;;;;;;;;;;5055537;28;20051;-77
2023/10/01 11:28:52;;;;;;;19.00;8.95;;;;;;;;;;5058411;28;20080;-78
2023/10/01 11:31:23;;;;;;;17.48;8.45;;;;;;;;;;5055516;28;20045;-78
2023/10/01 11:34:06;;;;;;;16.73;7.90;;;;;;;;;;5054733;28;20535;-78
2023/10/01 11:36:38;;;;;;;16.73;8.73;;;;;;;;;;5058565;28;20123;-76
2023/10/01 11:39:06;;;;;;;17.92;8.57;;;;;;;;;;5060264;28;20077;-78
2023/10/01 11:41:44;;;;;;;19.50;8.95;;;;;;;;;;5054988;28;20095;-77
2023/10/01 11:44:24;;;;;;;19.27;8.35;;;;;;;;;;5052050;28;20052;-76
2023/10/01 11:46:57;;;;;;;17.58;8.50;;;;;;;;;;5077095;28;20119;-77
2023/10/01 11:49:34;;;;;;;16.92;8.27;;;;;;;;;;5069009;28;20058;-77
2023/10/01 11:52:21;;;;;;;16.60;8.18;;;;;;;;;;5055373;28;20100;-77
2023/10/01 11:54:53;;;;;;;16.85;8.18;;;;;;;;;;5056068;28;20399;-77
2023/10/01 11:57:23;;;;;;;16.90;8.40;;;;;;;;;;5057814;28;20102;-77
2023/10/01 11:59:56;;;;;;;16.65;7.78;;;;;;;;;;5058095;28;20502;-78
2023/10/01 12:02:26;;;;;;;18.13;8.55;;;;;;;;;;5057057;28;20073;-78
2023/10/01 12:04:56;;;;;;;16.67;8.77;;;;;;;;;;5059708;28;20041;-76
2023/10/01 12:07:24;;;;;;;14.63;7.65;;;;;;;;;;5057530;28;20105;-77
2023/10/01 12:09:51;;;;;;;15.13;7.93;;;;;;;;;;5053775;28;20078;-77
2023/10/01 12:12:43;;;;;;;16.05;7.65;;;;;;;;;;5051838;28;20054;-77
2023/10/01 12:17:55;;;;;;;18.98;8.45;;;;;;;;;;5058319;28;20084;-78
2023/10/01 12:20:28;;;;;;;15.80;7.50;;;;;;;;;;5059509;28;20542;-77
2023/10/01 12:28:29;;;;;;;19.65;8.18;;;;;;;;;;5056137;28;20503;-77
2023/10/01 12:31:00;;;;;;;19.45;9.32;;;;;;;;;;5056712;28;20495;-75
2023/10/01 12:33:38;;;;;;;16.55;7.97;;;;;;;;;;5055715;28;20057;-78
2023/10/01 12:36:11;;;;;;;18.73;7.88;;;;;;;;;;5060209;28;20041;-78
2023/10/01 12:38:37;;;;;;;16.88;8.20;;;;;;;;;;5054540;28;20049;-77
2023/10/01 12:41:05;;;;;;;16.10;7.75;;;;;;;;;;5047138;28;20175;-76
2023/10/01 12:43:38;;;;;;;14.38;7.40;;;;;;;;;;5044675;28;20084;-76
2023/10/01 12:46:08;;;;;;;15.93;7.30;;;;;;;;;;5054762;28;20049;-76
2023/10/01 12:49:12;;;;;;;16.63;7.25;;;;;;;;;;5055169;28;20052;-77
2023/10/01 12:51:33;;;;;;;16.75;7.40;;;;;;;;;;5054431;28;20081;-76
2023/10/01 12:53:59;;;;;;;17.60;7.60;;;;;;;;;;5055043;28;20049;-78
2023/10/01 12:56:44;;;;;;;16.45;7.57;;;;;;;;;;5052782;28;20187;-76
2023/10/01 12:59:18;;;;;;;15.90;7.82;;;;;;;;;;5054001;28;20056;-77
2023/10/01 13:01:50;;;;;;;18.42;7.75;;;;;;;;;;5052773;28;20045;-77
2023/10/01 13:04:25;;;;;;;14.73;7.40;;;;;;;;;;5054037;28;20055;-77
2023/10/01 13:06:52;;;;;;;16.42;8.00;;;;;;;;;;5052960;28;20073;-77
2023/10/01 13:12:16;;;;;;;17.65;7.93;;;;;;;;;;5052179;28;20041;-77
2023/10/01 13:14:42;;;;;;;14.48;7.40;;;;;;;;;;5053304;28;20052;-77
2023/10/01 13:17:19;;;;;;;16.38;7.80;;;;;;;;;;5051860;28;20083;-77
2023/10/01 13:19:49;;;;;;;15.00;7.43;;;;;;;;;;5051973;28;20503;-77
2023/10/01 13:22:20;;;;;;;14.52;7.30;;;;;;;;;;5051726;28;20507;-77
2023/10/01 13:24:56;;;;;;;16.63;7.88;;;;;;;;;;5052869;28;20051;-77
2023/10/01 13:27:22;;;;;;;15.43;7.47;;;;;;;;;;5048351;28;20471;-76
2023/10/01 13:30:18;;;;;;;14.80;6.85;;;;;;;;;;5052869;28;20039;-77
2023/10/01 13:32:57;;;;;;;14.57;7.05;;;;;;;;;;5054216;28;20419;-76
2023/10/01 13:35:32;;;;;;;14.95;7.00;;;;;;;;;;5051817;28;20135;-77
2023/10/01 13:38:15;;;;;;;18.20;6.97;;;;;;;;;;5036456;28;20107;-77
2023/10/01 14:11:06;;;;;;;13.73;6.68;;;;;;;;;;5050743;28;20419;-77
2023/10/01 14:13:35;;;;;;;12.52;5.70;;;;;;;;;;5036862;28;20049;-76
2023/10/01 14:16:17;;;;;;;14.63;6.75;;;;;;;;;;5035287;28;20167;-76
2023/10/01 14:18:57;;;;;;;15.55;6.70;;;;;;;;;;5049277;28;20206;-77
2023/10/01 14:21:27;;;;;;;12.60;6.70;;;;;;;;;;5046805;28;20102;-78
2023/10/01 14:24:42;;;;;;;14.98;6.88;;;;;;;;;;5045030;28;20045;-78
2023/10/01 14:26:50;;;;;;;13.70;6.45;;;;;;;;;;5037858;28;20519;-79
2023/10/01 14:29:22;;;;;;;14.80;6.78;;;;;;;;;;5043632;28;20139;-77
2023/10/01 14:31:54;;;;;;;13.10;6.63;;;;;;;;;;5047973;28;20053;-77
2023/10/01 14:34:21;;;;;;;14.55;6.95;;;;;;;;;;5050733;28;20053;-77
2023/10/01 14:36:51;;;;;;;14.75;6.50;;;;;;;;;;5049508;28;20045;-77
2023/10/01 14:39:18;;;;;;;14.52;7.03;;;;;;;;;;5034052;28;20143;-77
2023/10/01 14:41:50;;;;;;;12.88;6.43;;;;;;;;;;5047830;28;20053;-77
2023/10/01 14:44:24;;;;;;;12.60;6.15;;;;;;;;;;5034842;28;20061;-77
2023/10/01 14:46:52;;;;;;;15.32;7.13;;;;;;;;;;5055288;28;20041;-77
2023/10/01 14:49:19;;;;;;;12.65;6.70;;;;;;;;;;5051466;28;20495;-78
2023/10/01 14:51:48;;;;;;;13.43;6.22;;;;;;;;;;5054785;28;20546;-77
2023/10/01 14:54:19;;;;;;;14.60;6.65;;;;;;;;;;5056354;28;20502;-77
2023/10/01 14:56:54;;;;;;;15.05;6.85;;;;;;;;;;5040417;28;20049;-78
2023/10/01 14:59:20;;;;;;;15.07;6.88;;;;;;;;;;5055765;28;20120;-77
2023/10/01 15:01:50;;;;;;;12.73;6.28;;;;;;;;;;5045763;28;20524;-77
2023/10/01 15:04:22;;;;;;;13.35;6.75;;;;;;;;;;5056654;28;20047;-77
2023/10/01 15:06:56;;;;;;;13.25;6.32;;;;;;;;;;5056219;28;20049;-77
2023/10/01 15:09:25;;;;;;;14.25;6.55;;;;;;;;;;5055279;28;20041;-77
2023/10/01 15:11:54;;;;;;;11.23;6.32;;;;;;;;;;5043947;28;20049;-77
2023/10/01 15:14:26;;;;;;;12.85;6.68;;;;;;;;;;5054389;28;20045;-77
2023/10/01 15:16:53;;;;;;;13.43;6.65;;;;;;;;;;5055762;28;20049;-77
2023/10/01 15:19:19;;;;;;;14.68;6.10;;;;;;;;;;5054903;28;20519;-77
2023/10/01 15:21:48;;;;;;;14.93;6.75;;;;;;;;;;5056066;28;20080;-77
2023/10/01 15:24:14;;;;;;;14.40;6.53;;;;;;;;;;5056057;28;20065;-77
2023/10/01 15:26:43;;;;;;;15.50;6.97;;;;;;;;;;5055184;28;20071;-76
2023/10/01 15:29:11;;;;;;;14.77;6.65;;;;;;;;;;5054321;28;20456;-76
2023/10/01 15:31:38;;;;;;;11.88;6.68;;;;;;;;;;5055273;28;20520;-77
2023/10/01 15:34:05;;;;;;;12.95;6.28;;;;;;;;;;5055378;28;20048;-77
2023/10/01 15:36:41;;;;;;;14.18;6.30;;;;;;;;;;5054602;28;20107;-77
2023/10/01 15:42:11;;;;;;;12.77;6.35;;;;;;;;;;5049838;28;20045;-79
2023/10/01 15:44:49;;;;;;;11.65;6.38;;;;;;;;;;5039646;28;20060;-77
2023/10/01 15:47:25;;;;;;;13.10;6.53;;;;;;;;;;5036251;28;20139;-77
2023/10/01 15:50:05;;;;;;;17.48;6.53;;;;;;;;;;5035731;28;20052;-77
2023/10/01 15:52:37;;;;;;;14.75;7.03;;;;;;;;;;5054736;28;20503;-77
2023/10/01 15:55:07;;;;;;;14.45;6.65;;;;;;;;;;5065245;28;20029;-79
2023/10/01 15:57:36;;;;;;;12.57;7.13;;;;;;;;;;5054740;28;20106;-77
2023/10/01 16:00:23;;;;;;;14.13;6.35;;;;;;;;;;5052473;28;20053;-77
2023/10/01 16:02:50;;;;;;;13.02;6.45;;;;;;;;;;5053545;28;20040;-77